Weather reports worldwide

Advertisment
Stromtangen Fyr, Norway (1495): temperature: 25.09.2020 14:00:00 - 01.10.2020 14:00:00 (CEST)Stromtangen Fyr, Norway (1495): wind speed & gusts: 25.09.2020 14:00:00 - 01.10.2020 14:00:00 (CEST)Stromtangen Fyr, Norway (1495): wind direction: 25.09.2020 14:00:00 - 01.10.2020 14:00:00 (CEST)Stromtangen Fyr, Norway (1495): reduced air pressure: 25.09.2020 14:00:00 - 01.10.2020 14:00:00 (CEST)
Date & Time tt [°C] ff [km/h] ff [kn] fx [km/h] fx [kn] dd ppp [hPa]
01.10.2020 14:00:00 - - - - - - -
01.10.2020 13:00:00 - - - - - - -
01.10.2020 12:00:00 13,3 26 14 39 21 E 1014,6
01.10.2020 11:00:00 12,8 30 16 40 22 E 1014,8
01.10.2020 10:00:00 12,4 33 18 40 22 E 1014,8
01.10.2020 09:00:00 12,5 28 15 34 18 E 1014,8
01.10.2020 08:00:00 11,9 24 13 29 16 E 1014,7
01.10.2020 07:00:00 12,1 23 12 27 14 E 1014,4
01.10.2020 06:00:00 13,2 21 11 24 13 E 1014,5
01.10.2020 05:00:00 13,6 19 10 22 12 ESE 1014,7
01.10.2020 04:00:00 13,7 18 10 27 14 E 1014,7
01.10.2020 03:00:00 13,9 22 12 28 15 ESE 1014,8
01.10.2020 02:00:00 14,0 23 13 27 15 ESE 1015,1
01.10.2020 01:00:00 13,9 21 11 27 15 ESE 1015,5
01.10.2020 00:00:00 13,9 20 11 25 13 E 1015,7
30.09.2020 23:00:00 13,9 20 11 26 14 E 1015,8
30.09.2020 22:00:00 14,0 21 12 24 13 ESE 1016,0
30.09.2020 21:00:00 13,8 19 10 21 11 E 1016,0
30.09.2020 20:00:00 13,8 11 6 16 8 E 1016,0
30.09.2020 19:00:00 14,4 14 8 19 10 SSE 1016,0
30.09.2020 18:00:00 14,8 17 9 23 13 S 1015,7
30.09.2020 17:00:00 14,7 19 11 24 13 S 1015,7
30.09.2020 16:00:00 14,9 20 11 29 16 SSE 1016,0
30.09.2020 15:00:00 14,8 22 12 29 16 SSE 1016,0
30.09.2020 14:00:00 14,4 21 11 26 14 S 1016,2
30.09.2020 13:00:00 14,7 22 12 29 16 SSE 1016,2
30.09.2020 12:00:00 - - - - - - -
30.09.2020 11:00:00 - - - - - - -
30.09.2020 10:00:00 13,1 15 8 19 10 ESE 1016,3
30.09.2020 09:00:00 12,7 13 7 18 10 ESE 1016,2
30.09.2020 08:00:00 12,3 14 8 18 10 ESE 1016,1
30.09.2020 07:00:00 12,3 10 6 19 10 SE 1015,9
30.09.2020 06:00:00 12,4 14 7 20 11 ESE 1015,9
30.09.2020 05:00:00 12,4 16 8 22 12 ESE 1015,8
30.09.2020 04:00:00 12,7 13 7 22 12 SE 1016,0
30.09.2020 03:00:00 12,3 15 8 19 11 E 1016,4
30.09.2020 02:00:00 12,4 16 9 21 12 E 1016,6
30.09.2020 01:00:00 12,5 16 8 19 11 E 1016,8
30.09.2020 00:00:00 12,5 14 8 17 9 ESE 1016,9
29.09.2020 23:00:00 11,9 11 6 15 8 ENE 1017,0
29.09.2020 22:00:00 12,3 11 6 14 8 ENE 1016,9
29.09.2020 21:00:00 13,0 9 5 13 7 ESE 1016,9
29.09.2020 20:00:00 13,6 6 4 15 8 ESE 1016,8
29.09.2020 19:00:00 - - - - - - -
29.09.2020 18:00:00 14,6 18 10 28 15 S 1016,2
29.09.2020 17:00:00 14,9 22 12 27 14 S 1016,1
29.09.2020 16:00:00 - - - - - - -
29.09.2020 15:00:00 14,9 18 10 22 12 S 1016,1
29.09.2020 14:00:00 14,9 18 10 21 11 SSW 1016,3
29.09.2020 13:00:00 14,3 17 9 24 13 S 1016,4
29.09.2020 12:00:00 - - - - - - -
29.09.2020 11:00:00 13,8 5 3 18 10 ESE 1015,9
29.09.2020 10:00:00 13,6 11 6 28 15 SSW 1015,5
29.09.2020 09:00:00 13,6 20 11 26 14 S 1015,1
29.09.2020 08:00:00 13,3 13 7 21 12 ESE 1014,7
29.09.2020 07:00:00 13,1 18 10 22 12 E 1014,2
29.09.2020 06:00:00 12,9 14 8 18 10 E 1014,2
29.09.2020 05:00:00 12,8 15 8 19 10 ENE 1014,1
29.09.2020 04:00:00 12,9 16 9 19 11 ENE 1014,1
29.09.2020 03:00:00 12,8 18 10 20 11 ENE 1014,2
29.09.2020 02:00:00 12,9 18 10 24 13 ENE 1014,3
29.09.2020 01:00:00 - - - - - - -
29.09.2020 00:00:00 12,9 17 9 23 13 NE 1014,9
28.09.2020 23:00:00 12,9 16 9 22 12 NE 1015,0
28.09.2020 22:00:00 13,0 16 9 21 12 NE 1015,2
28.09.2020 21:00:00 13,2 18 10 24 13 E 1015,2
28.09.2020 20:00:00 13,7 18 10 22 12 E 1014,9
28.09.2020 19:00:00 13,8 14 8 20 11 ENE 1014,5
28.09.2020 18:00:00 - - - - - - -
28.09.2020 17:00:00 13,9 19 10 23 12 ENE 1013,8
28.09.2020 16:00:00 14,1 16 8 20 11 ENE 1014,1
28.09.2020 15:00:00 - - - - - - -
28.09.2020 14:00:00 13,8 18 10 28 15 NE 1014,8
28.09.2020 13:00:00 13,2 21 11 28 15 NE 1015,0
28.09.2020 12:00:00 12,7 22 12 32 18 NE 1015,0
28.09.2020 11:00:00 12,2 24 13 34 18 NE 1015,1
28.09.2020 10:00:00 12,0 22 12 32 17 NE 1014,9
28.09.2020 09:00:00 11,9 21 11 34 19 NE 1015,0
28.09.2020 08:00:00 11,8 24 13 31 17 NE 1015,0
28.09.2020 07:00:00 - - - - - - -
28.09.2020 06:00:00 11,9 16 9 29 16 NNE 1014,8
28.09.2020 05:00:00 12,0 19 10 30 16 NNE 1015,0
28.09.2020 04:00:00 12,1 19 10 29 16 N 1015,2
28.09.2020 03:00:00 12,2 17 9 23 13 N 1015,6
28.09.2020 02:00:00 12,4 16 9 27 14 N 1015,7
28.09.2020 01:00:00 12,6 20 11 32 17 NNE 1015,8
28.09.2020 00:00:00 12,8 19 10 32 17 NNE 1015,9
27.09.2020 23:00:00 13,1 24 13 37 20 NNE 1015,8
27.09.2020 22:00:00 13,4 29 16 38 21 NE 1015,6
27.09.2020 21:00:00 13,6 22 12 30 16 NNE 1015,4
27.09.2020 20:00:00 13,2 17 9 24 13 - 1015,2
27.09.2020 19:00:00 13,6 18 10 27 14 N 1014,8
27.09.2020 18:00:00 13,8 19 10 28 15 N 1014,5
27.09.2020 17:00:00 14,0 20 11 28 15 N 1014,2
27.09.2020 16:00:00 14,2 20 11 26 14 N 1014,2
27.09.2020 15:00:00 14,3 16 9 28 15 NNE 1014,2
27.09.2020 14:00:00 13,4 18 10 26 14 N 1014,6
27.09.2020 13:00:00 12,1 18 10 30 16 N 1014,5
27.09.2020 12:00:00 11,4 19 11 28 15 N 1014,6
27.09.2020 11:00:00 11,1 19 10 29 16 N 1014,4
27.09.2020 10:00:00 10,6 18 10 32 18 NNE 1014,1
27.09.2020 09:00:00 10,4 18 10 30 16 N 1013,7
27.09.2020 08:00:00 10,2 20 11 33 18 N 1013,3
27.09.2020 07:00:00 - - - - - - -
27.09.2020 06:00:00 10,1 23 13 34 19 N 1012,7
27.09.2020 05:00:00 - - - - - - -
27.09.2020 04:00:00 10,0 23 12 36 19 N 1012,3
27.09.2020 03:00:00 9,9 21 12 41 22 N 1012,1
27.09.2020 02:00:00 9,8 25 13 39 21 N 1011,9
27.09.2020 01:00:00 9,8 23 12 41 22 N 1011,6
27.09.2020 00:00:00 10,3 26 14 43 23 NNE 1011,2
26.09.2020 23:00:00 10,4 29 16 45 24 NNE 1010,7
26.09.2020 22:00:00 10,2 27 14 44 24 NNE 1010,1
26.09.2020 21:00:00 10,2 25 14 40 22 NNE 1009,7
26.09.2020 20:00:00 10,0 26 14 40 22 NNE 1009,1
26.09.2020 19:00:00 10,0 29 16 45 24 NNE 1008,0
26.09.2020 18:00:00 9,9 29 16 42 23 NNE 1007,2
26.09.2020 17:00:00 9,8 26 14 40 22 NNE 1006,6
26.09.2020 16:00:00 9,6 20 11 38 21 NNE 1006,2
26.09.2020 15:00:00 9,4 24 13 36 20 NNE 1005,4
26.09.2020 14:00:00 9,0 21 12 37 20 NNE 1004,8
26.09.2020 13:00:00 8,7 22 12 35 19 N 1004,2
26.09.2020 12:00:00 8,4 22 12 38 20 N 1003,7
26.09.2020 11:00:00 7,9 26 14 43 23 N 1002,6
26.09.2020 10:00:00 7,6 23 13 42 23 N 1001,7
26.09.2020 09:00:00 7,3 29 16 46 25 N 1000,9
26.09.2020 08:00:00 7,2 29 16 45 24 N 1000,2
26.09.2020 07:00:00 7,3 32 17 50 27 N 999,5
26.09.2020 06:00:00 7,5 23 12 55 30 N 999,0
26.09.2020 05:00:00 7,7 32 17 53 28 N 998,6
26.09.2020 04:00:00 8,2 31 17 54 29 NNE 998,4
26.09.2020 03:00:00 8,4 40 21 72 39 NNE 997,9
26.09.2020 02:00:00 8,8 44 24 67 36 N 997,6
26.09.2020 01:00:00 9,4 35 19 54 29 NNE 999,4
26.09.2020 00:00:00 10,0 35 19 54 29 N 1000,0
25.09.2020 23:00:00 - - - - - - -
25.09.2020 22:00:00 11,3 23 12 37 20 N 1001,8
25.09.2020 21:00:00 12,5 24 13 40 22 NNE 1002,3
25.09.2020 20:00:00 13,1 26 14 41 22 NNE 1002,2
25.09.2020 19:00:00 13,3 26 14 38 20 NE 1002,7
25.09.2020 18:00:00 13,2 26 14 - - NE 1002,6
25.09.2020 17:00:00 - - - - - - -
25.09.2020 16:00:00 14,4 26 14 36 20 NE 1003,3
25.09.2020 15:00:00 14,2 29 16 37 20 NE 1003,3
25.09.2020 14:00:00 13,9 26 14 34 19 NE 1003,4

tt = temperature
ff = wind speed
fx = gusts
dd = wind direction
ppp = reduced air pressure

Next stations